sensor_id;sensor_type;location;lat;lon;timestamp;temperature;humidity
21580;DHT22;10951;59.656;9.666;2023-07-31T00:00:16;14.40;99.90
21580;DHT22;10951;59.656;9.666;2023-07-31T00:02:43;14.40;99.90
21580;DHT22;10951;59.656;9.666;2023-07-31T00:05:10;14.40;99.90
21580;DHT22;10951;59.656;9.666;2023-07-31T00:07:37;14.40;99.90
21580;DHT22;10951;59.656;9.666;2023-07-31T00:10:04;14.40;99.90
21580;DHT22;10951;59.656;9.666;2023-07-31T00:12:32;14.30;99.90
21580;DHT22;10951;59.656;9.666;2023-07-31T00:14:59;14.40;99.90
21580;DHT22;10951;59.656;9.666;2023-07-31T00:17:26;14.40;99.90
21580;DHT22;10951;59.656;9.666;2023-07-31T00:19:53;14.30;99.90
21580;DHT22;10951;59.656;9.666;2023-07-31T00:22:20;14.30;99.90
21580;DHT22;10951;59.656;9.666;2023-07-31T00:24:47;14.40;99.90
21580;DHT22;10951;59.656;9.666;2023-07-31T00:27:14;14.30;99.90
21580;DHT22;10951;59.656;9.666;2023-07-31T00:29:42;14.30;99.90
21580;DHT22;10951;59.656;9.666;2023-07-31T00:32:09;14.30;99.90
21580;DHT22;10951;59.656;9.666;2023-07-31T00:34:37;14.30;99.90
21580;DHT22;10951;59.656;9.666;2023-07-31T00:37:04;14.30;99.90
21580;DHT22;10951;59.656;9.666;2023-07-31T00:39:33;14.30;99.90
21580;DHT22;10951;59.656;9.666;2023-07-31T00:42:00;14.20;99.90
21580;DHT22;10951;59.656;9.666;2023-07-31T00:44:27;14.20;99.90
21580;DHT22;10951;59.656;9.666;2023-07-31T00:46:56;14.20;99.90
21580;DHT22;10951;59.656;9.666;2023-07-31T00:49:23;14.20;99.90
21580;DHT22;10951;59.656;9.666;2023-07-31T00:51:50;14.20;99.90
21580;DHT22;10951;59.656;9.666;2023-07-31T00:54:17;14.30;99.90
21580;DHT22;10951;59.656;9.666;2023-07-31T00:56:45;14.30;99.90
21580;DHT22;10951;59.656;9.666;2023-07-31T00:59:15;14.30;99.90
21580;DHT22;10951;59.656;9.666;2023-07-31T01:01:42;14.30;99.90
21580;DHT22;10951;59.656;9.666;2023-07-31T01:04:09;14.30;99.90
21580;DHT22;10951;59.656;9.666;2023-07-31T01:11:51;14.30;99.90
21580;DHT22;10951;59.656;9.666;2023-07-31T01:14:19;14.20;99.90
21580;DHT22;10951;59.656;9.666;2023-07-31T01:16:46;14.20;99.90
21580;DHT22;10951;59.656;9.666;2023-07-31T01:19:15;14.10;99.90
21580;DHT22;10951;59.656;9.666;2023-07-31T01:27:24;14.00;99.90
21580;DHT22;10951;59.656;9.666;2023-07-31T01:30:15;13.90;99.90
21580;DHT22;10951;59.656;9.666;2023-07-31T01:32:47;13.90;99.90
21580;DHT22;10951;59.656;9.666;2023-07-31T01:35:15;13.80;99.90
21580;DHT22;10951;59.656;9.666;2023-07-31T01:37:42;13.80;99.90
21580;DHT22;10951;59.656;9.666;2023-07-31T01:40:09;13.80;99.90
21580;DHT22;10951;59.656;9.666;2023-07-31T01:42:36;13.70;99.90
21580;DHT22;10951;59.656;9.666;2023-07-31T01:45:04;13.70;99.90
21580;DHT22;10951;59.656;9.666;2023-07-31T01:47:31;13.70;99.90
21580;DHT22;10951;59.656;9.666;2023-07-31T01:49:58;13.70;99.90
21580;DHT22;10951;59.656;9.666;2023-07-31T01:52:25;13.70;99.90
21580;DHT22;10951;59.656;9.666;2023-07-31T01:54:52;13.60;99.90
21580;DHT22;10951;59.656;9.666;2023-07-31T01:57:19;13.60;99.90
21580;DHT22;10951;59.656;9.666;2023-07-31T01:59:46;13.60;99.90
21580;DHT22;10951;59.656;9.666;2023-07-31T02:02:13;13.60;99.90
21580;DHT22;10951;59.656;9.666;2023-07-31T02:04:40;13.70;99.90
21580;DHT22;10951;59.656;9.666;2023-07-31T02:07:07;13.70;99.90
21580;DHT22;10951;59.656;9.666;2023-07-31T02:09:34;13.70;99.90
21580;DHT22;10951;59.656;9.666;2023-07-31T02:12:02;13.70;99.90
21580;DHT22;10951;59.656;9.666;2023-07-31T02:14:29;13.70;99.90
21580;DHT22;10951;59.656;9.666;2023-07-31T02:16:55;13.70;99.90
21580;DHT22;10951;59.656;9.666;2023-07-31T02:19:22;13.70;99.90
21580;DHT22;10951;59.656;9.666;2023-07-31T02:21:49;13.70;99.90
21580;DHT22;10951;59.656;9.666;2023-07-31T02:24:16;13.70;99.90
21580;DHT22;10951;59.656;9.666;2023-07-31T02:26:43;13.70;99.90
21580;DHT22;10951;59.656;9.666;2023-07-31T02:29:10;13.70;99.90
21580;DHT22;10951;59.656;9.666;2023-07-31T02:31:37;13.70;99.90
21580;DHT22;10951;59.656;9.666;2023-07-31T02:34:04;13.70;99.90
21580;DHT22;10951;59.656;9.666;2023-07-31T02:36:31;13.70;99.90
21580;DHT22;10951;59.656;9.666;2023-07-31T02:38:58;13.70;99.90
21580;DHT22;10951;59.656;9.666;2023-07-31T02:41:25;13.70;99.90
21580;DHT22;10951;59.656;9.666;2023-07-31T02:43:53;13.70;99.90
21580;DHT22;10951;59.656;9.666;2023-07-31T02:46:20;13.80;99.90
21580;DHT22;10951;59.656;9.666;2023-07-31T02:48:49;13.80;99.90
21580;DHT22;10951;59.656;9.666;2023-07-31T02:51:16;13.80;99.90
21580;DHT22;10951;59.656;9.666;2023-07-31T02:53:43;13.80;99.90
21580;DHT22;10951;59.656;9.666;2023-07-31T02:56:10;13.80;99.90
21580;DHT22;10951;59.656;9.666;2023-07-31T02:58:37;13.80;99.90
21580;DHT22;10951;59.656;9.666;2023-07-31T03:01:04;13.80;99.90
21580;DHT22;10951;59.656;9.666;2023-07-31T03:03:32;13.80;99.90
21580;DHT22;10951;59.656;9.666;2023-07-31T03:05:59;13.80;99.90
21580;DHT22;10951;59.656;9.666;2023-07-31T03:08:26;13.80;99.90
21580;DHT22;10951;59.656;9.666;2023-07-31T03:10:54;13.80;99.90
21580;DHT22;10951;59.656;9.666;2023-07-31T03:13:21;13.70;99.90
21580;DHT22;10951;59.656;9.666;2023-07-31T03:15:48;13.70;99.90
21580;DHT22;10951;59.656;9.666;2023-07-31T03:18:15;13.70;99.90
21580;DHT22;10951;59.656;9.666;2023-07-31T03:20:43;13.80;99.90
21580;DHT22;10951;59.656;9.666;2023-07-31T03:23:10;13.70;99.90
21580;DHT22;10951;59.656;9.666;2023-07-31T03:25:37;13.70;99.90
21580;DHT22;10951;59.656;9.666;2023-07-31T03:28:04;13.70;99.90
21580;DHT22;10951;59.656;9.666;2023-07-31T03:30:32;13.70;99.90
21580;DHT22;10951;59.656;9.666;2023-07-31T03:32:59;13.70;99.90
21580;DHT22;10951;59.656;9.666;2023-07-31T03:35:26;13.70;99.90
21580;DHT22;10951;59.656;9.666;2023-07-31T03:37:54;13.70;99.90
21580;DHT22;10951;59.656;9.666;2023-07-31T03:40:21;13.70;99.90
21580;DHT22;10951;59.656;9.666;2023-07-31T03:42:49;13.70;99.90
21580;DHT22;10951;59.656;9.666;2023-07-31T03:45:16;13.70;99.90
21580;DHT22;10951;59.656;9.666;2023-07-31T03:47:43;13.70;99.90
21580;DHT22;10951;59.656;9.666;2023-07-31T03:50:10;13.70;99.90
21580;DHT22;10951;59.656;9.666;2023-07-31T03:52:37;13.70;99.90
21580;DHT22;10951;59.656;9.666;2023-07-31T03:55:04;13.80;99.90
21580;DHT22;10951;59.656;9.666;2023-07-31T03:57:31;13.70;99.90
21580;DHT22;10951;59.656;9.666;2023-07-31T03:59:59;13.80;99.90
21580;DHT22;10951;59.656;9.666;2023-07-31T04:02:26;13.80;99.90
21580;DHT22;10951;59.656;9.666;2023-07-31T04:04:53;13.80;99.90
21580;DHT22;10951;59.656;9.666;2023-07-31T04:07:20;13.80;99.90
21580;DHT22;10951;59.656;9.666;2023-07-31T04:09:47;13.80;99.90
21580;DHT22;10951;59.656;9.666;2023-07-31T04:12:14;13.90;99.90
21580;DHT22;10951;59.656;9.666;2023-07-31T04:14:41;13.90;99.90
21580;DHT22;10951;59.656;9.666;2023-07-31T04:17:08;13.90;99.90
21580;DHT22;10951;59.656;9.666;2023-07-31T04:19:38;13.90;99.90
21580;DHT22;10951;59.656;9.666;2023-07-31T04:22:05;13.90;99.90
21580;DHT22;10951;59.656;9.666;2023-07-31T04:24:32;14.00;99.90
21580;DHT22;10951;59.656;9.666;2023-07-31T04:26:59;14.00;99.90
21580;DHT22;10951;59.656;9.666;2023-07-31T04:29:26;14.00;99.90
21580;DHT22;10951;59.656;9.666;2023-07-31T04:31:53;14.00;99.90
21580;DHT22;10951;59.656;9.666;2023-07-31T04:34:20;14.10;99.90
21580;DHT22;10951;59.656;9.666;2023-07-31T04:36:47;14.10;99.90
21580;DHT22;10951;59.656;9.666;2023-07-31T04:39:14;14.10;99.90
21580;DHT22;10951;59.656;9.666;2023-07-31T04:41:41;14.10;99.90
21580;DHT22;10951;59.656;9.666;2023-07-31T04:44:08;14.10;99.90
21580;DHT22;10951;59.656;9.666;2023-07-31T04:46:35;14.10;99.90
21580;DHT22;10951;59.656;9.666;2023-07-31T04:49:02;14.00;99.90
21580;DHT22;10951;59.656;9.666;2023-07-31T04:51:29;14.10;99.90
21580;DHT22;10951;59.656;9.666;2023-07-31T04:53:56;14.00;99.90
21580;DHT22;10951;59.656;9.666;2023-07-31T04:56:23;14.00;99.90
21580;DHT22;10951;59.656;9.666;2023-07-31T04:58:50;14.00;99.90
21580;DHT22;10951;59.656;9.666;2023-07-31T05:01:17;14.00;99.90
21580;DHT22;10951;59.656;9.666;2023-07-31T05:03:44;14.00;99.90
21580;DHT22;10951;59.656;9.666;2023-07-31T05:06:12;14.10;99.90
21580;DHT22;10951;59.656;9.666;2023-07-31T05:08:40;14.10;99.90
21580;DHT22;10951;59.656;9.666;2023-07-31T05:11:07;14.10;99.90
21580;DHT22;10951;59.656;9.666;2023-07-31T05:13:34;14.10;99.90
21580;DHT22;10951;59.656;9.666;2023-07-31T05:16:01;14.10;99.90
21580;DHT22;10951;59.656;9.666;2023-07-31T05:18:29;14.20;99.90
21580;DHT22;10951;59.656;9.666;2023-07-31T05:20:56;14.30;99.90
21580;DHT22;10951;59.656;9.666;2023-07-31T05:23:23;14.30;99.90
21580;DHT22;10951;59.656;9.666;2023-07-31T05:25:50;14.40;99.90
21580;DHT22;10951;59.656;9.666;2023-07-31T05:28:17;14.50;99.90
21580;DHT22;10951;59.656;9.666;2023-07-31T05:30:44;14.60;99.90
21580;DHT22;10951;59.656;9.666;2023-07-31T05:33:11;14.60;99.90
21580;DHT22;10951;59.656;9.666;2023-07-31T05:35:40;14.70;99.90
21580;DHT22;10951;59.656;9.666;2023-07-31T05:38:07;14.80;99.90
21580;DHT22;10951;59.656;9.666;2023-07-31T05:40:34;14.90;99.90
21580;DHT22;10951;59.656;9.666;2023-07-31T05:43:02;14.90;99.90
21580;DHT22;10951;59.656;9.666;2023-07-31T05:45:29;15.00;99.90
21580;DHT22;10951;59.656;9.666;2023-07-31T05:47:55;15.00;99.90
21580;DHT22;10951;59.656;9.666;2023-07-31T05:50:22;15.00;99.90
21580;DHT22;10951;59.656;9.666;2023-07-31T05:52:50;15.00;99.90
21580;DHT22;10951;59.656;9.666;2023-07-31T05:55:17;15.00;99.90
21580;DHT22;10951;59.656;9.666;2023-07-31T05:57:44;15.10;99.90
21580;DHT22;10951;59.656;9.666;2023-07-31T06:00:12;15.20;99.90
21580;DHT22;10951;59.656;9.666;2023-07-31T06:02:40;15.30;99.90
21580;DHT22;10951;59.656;9.666;2023-07-31T06:05:07;15.30;99.90
21580;DHT22;10951;59.656;9.666;2023-07-31T06:07:35;15.50;99.90
21580;DHT22;10951;59.656;9.666;2023-07-31T06:10:02;15.60;99.90
21580;DHT22;10951;59.656;9.666;2023-07-31T06:12:32;15.80;99.90
21580;DHT22;10951;59.656;9.666;2023-07-31T06:14:59;16.10;99.90
21580;DHT22;10951;59.656;9.666;2023-07-31T06:17:26;16.50;99.90
21580;DHT22;10951;59.656;9.666;2023-07-31T06:19:54;16.70;99.90
21580;DHT22;10951;59.656;9.666;2023-07-31T06:22:21;16.80;99.90
21580;DHT22;10951;59.656;9.666;2023-07-31T06:24:48;16.90;99.90
21580;DHT22;10951;59.656;9.666;2023-07-31T06:27:15;16.80;99.90
21580;DHT22;10951;59.656;9.666;2023-07-31T06:29:42;16.80;99.90
21580;DHT22;10951;59.656;9.666;2023-07-31T06:32:09;16.80;99.80
21580;DHT22;10951;59.656;9.666;2023-07-31T06:34:36;16.80;99.60
21580;DHT22;10951;59.656;9.666;2023-07-31T06:37:04;16.80;99.90
21580;DHT22;10951;59.656;9.666;2023-07-31T06:39:31;16.90;99.90
21580;DHT22;10951;59.656;9.666;2023-07-31T06:41:58;17.00;99.50
21580;DHT22;10951;59.656;9.666;2023-07-31T06:44:25;17.10;99.20
21580;DHT22;10951;59.656;9.666;2023-07-31T06:46:51;17.20;98.60
21580;DHT22;10951;59.656;9.666;2023-07-31T06:49:18;17.20;98.80
21580;DHT22;10951;59.656;9.666;2023-07-31T06:51:46;17.30;98.70
21580;DHT22;10951;59.656;9.666;2023-07-31T06:54:13;17.40;98.80
21580;DHT22;10951;59.656;9.666;2023-07-31T06:56:40;17.60;98.20
21580;DHT22;10951;59.656;9.666;2023-07-31T06:59:07;17.70;98.00
21580;DHT22;10951;59.656;9.666;2023-07-31T07:01:34;17.80;97.50
21580;DHT22;10951;59.656;9.666;2023-07-31T07:04:01;18.00;97.50
21580;DHT22;10951;59.656;9.666;2023-07-31T07:06:28;18.20;97.60
21580;DHT22;10951;59.656;9.666;2023-07-31T07:08:55;18.60;97.50
21580;DHT22;10951;59.656;9.666;2023-07-31T07:11:22;19.00;96.10
21580;DHT22;10951;59.656;9.666;2023-07-31T07:13:49;19.20;94.60
21580;DHT22;10951;59.656;9.666;2023-07-31T07:16:16;19.10;94.40
21580;DHT22;10951;59.656;9.666;2023-07-31T07:18:43;18.90;93.40
21580;DHT22;10951;59.656;9.666;2023-07-31T07:21:28;19.00;94.00
21580;DHT22;10951;59.656;9.666;2023-07-31T07:23:55;19.10;93.50
21580;DHT22;10951;59.656;9.666;2023-07-31T07:26:22;19.10;93.20
21580;DHT22;10951;59.656;9.666;2023-07-31T07:28:49;19.10;93.90
21580;DHT22;10951;59.656;9.666;2023-07-31T07:31:16;19.00;94.30
21580;DHT22;10951;59.656;9.666;2023-07-31T07:33:43;19.00;94.20
21580;DHT22;10951;59.656;9.666;2023-07-31T07:36:10;18.80;93.70
21580;DHT22;10951;59.656;9.666;2023-07-31T07:38:39;18.70;94.50
21580;DHT22;10951;59.656;9.666;2023-07-31T07:41:06;18.60;93.80
21580;DHT22;10951;59.656;9.666;2023-07-31T07:43:33;18.60;94.20
21580;DHT22;10951;59.656;9.666;2023-07-31T07:46:00;18.50;93.70
21580;DHT22;10951;59.656;9.666;2023-07-31T07:48:27;18.40;94.30
21580;DHT22;10951;59.656;9.666;2023-07-31T07:50:54;18.30;94.60
21580;DHT22;10951;59.656;9.666;2023-07-31T07:53:21;18.30;94.60
21580;DHT22;10951;59.656;9.666;2023-07-31T07:55:48;18.20;95.10
21580;DHT22;10951;59.656;9.666;2023-07-31T07:58:15;18.20;95.70
21580;DHT22;10951;59.656;9.666;2023-07-31T08:00:48;18.20;95.30
21580;DHT22;10951;59.656;9.666;2023-07-31T08:03:16;18.10;95.00
21580;DHT22;10951;59.656;9.666;2023-07-31T08:05:44;18.10;95.50
21580;DHT22;10951;59.656;9.666;2023-07-31T08:08:15;18.00;94.90
21580;DHT22;10951;59.656;9.666;2023-07-31T08:10:46;17.90;94.70
21580;DHT22;10951;59.656;9.666;2023-07-31T08:13:13;18.00;95.10
21580;DHT22;10951;59.656;9.666;2023-07-31T08:15:43;18.10;95.20
21580;DHT22;10951;59.656;9.666;2023-07-31T08:18:10;18.10;94.90
21580;DHT22;10951;59.656;9.666;2023-07-31T08:20:38;18.30;94.30
21580;DHT22;10951;59.656;9.666;2023-07-31T08:23:05;18.40;94.50
21580;DHT22;10951;59.656;9.666;2023-07-31T08:25:35;18.60;94.40
21580;DHT22;10951;59.656;9.666;2023-07-31T08:28:05;18.60;93.50
21580;DHT22;10951;59.656;9.666;2023-07-31T08:30:33;18.70;94.40
21580;DHT22;10951;59.656;9.666;2023-07-31T08:33:00;18.90;93.50
21580;DHT22;10951;59.656;9.666;2023-07-31T08:35:27;18.90;93.60
21580;DHT22;10951;59.656;9.666;2023-07-31T08:37:55;19.00;92.40
21580;DHT22;10951;59.656;9.666;2023-07-31T08:40:22;18.90;92.60
21580;DHT22;10951;59.656;9.666;2023-07-31T08:42:52;18.80;92.90
21580;DHT22;10951;59.656;9.666;2023-07-31T08:45:20;18.60;91.40
21580;DHT22;10951;59.656;9.666;2023-07-31T08:47:49;18.40;91.50
21580;DHT22;10951;59.656;9.666;2023-07-31T08:50:18;18.30;92.10
21580;DHT22;10951;59.656;9.666;2023-07-31T08:52:50;18.30;92.50
21580;DHT22;10951;59.656;9.666;2023-07-31T08:55:18;18.30;93.30
21580;DHT22;10951;59.656;9.666;2023-07-31T08:57:52;18.40;93.80
21580;DHT22;10951;59.656;9.666;2023-07-31T09:00:22;18.50;93.40
21580;DHT22;10951;59.656;9.666;2023-07-31T09:03:03;18.50;93.70
21580;DHT22;10951;59.656;9.666;2023-07-31T09:05:31;18.60;93.50
21580;DHT22;10951;59.656;9.666;2023-07-31T09:07:58;18.60;93.60
21580;DHT22;10951;59.656;9.666;2023-07-31T09:10:26;18.60;92.90
21580;DHT22;10951;59.656;9.666;2023-07-31T09:12:53;18.60;92.50
21580;DHT22;10951;59.656;9.666;2023-07-31T09:15:21;18.60;92.70
21580;DHT22;10951;59.656;9.666;2023-07-31T09:18:05;18.70;92.50
21580;DHT22;10951;59.656;9.666;2023-07-31T09:20:32;18.70;92.20
21580;DHT22;10951;59.656;9.666;2023-07-31T09:23:07;18.70;91.70
21580;DHT22;10951;59.656;9.666;2023-07-31T09:25:35;18.70;91.50
21580;DHT22;10951;59.656;9.666;2023-07-31T09:28:05;18.60;91.40
21580;DHT22;10951;59.656;9.666;2023-07-31T09:30:50;18.60;92.00
21580;DHT22;10951;59.656;9.666;2023-07-31T09:33:19;18.70;92.40
21580;DHT22;10951;59.656;9.666;2023-07-31T09:35:47;18.90;90.80
21580;DHT22;10951;59.656;9.666;2023-07-31T09:38:16;18.90;90.10
21580;DHT22;10951;59.656;9.666;2023-07-31T09:40:47;19.00;90.50
21580;DHT22;10951;59.656;9.666;2023-07-31T09:43:19;19.10;90.80
21580;DHT22;10951;59.656;9.666;2023-07-31T09:45:47;19.40;90.70
21580;DHT22;10951;59.656;9.666;2023-07-31T09:48:16;19.80;89.80
21580;DHT22;10951;59.656;9.666;2023-07-31T09:50:45;20.10;90.20
21580;DHT22;10951;59.656;9.666;2023-07-31T09:53:13;20.40;88.70
21580;DHT22;10951;59.656;9.666;2023-07-31T09:55:41;20.60;90.00
21580;DHT22;10951;59.656;9.666;2023-07-31T09:58:11;20.70;88.70
21580;DHT22;10951;59.656;9.666;2023-07-31T10:00:39;20.70;83.20
21580;DHT22;10951;59.656;9.666;2023-07-31T10:03:08;20.60;85.10
21580;DHT22;10951;59.656;9.666;2023-07-31T10:05:38;20.60;85.50
21580;DHT22;10951;59.656;9.666;2023-07-31T10:08:08;20.50;84.10
21580;DHT22;10951;59.656;9.666;2023-07-31T10:10:36;20.50;83.60
21580;DHT22;10951;59.656;9.666;2023-07-31T10:13:04;20.50;83.70
21580;DHT22;10951;59.656;9.666;2023-07-31T10:15:32;20.60;80.40
21580;DHT22;10951;59.656;9.666;2023-07-31T10:18:00;20.50;80.80
21580;DHT22;10951;59.656;9.666;2023-07-31T10:20:28;20.50;81.20
21580;DHT22;10951;59.656;9.666;2023-07-31T10:22:55;20.50;82.70
21580;DHT22;10951;59.656;9.666;2023-07-31T10:25:23;20.50;83.40
21580;DHT22;10951;59.656;9.666;2023-07-31T10:27:52;20.40;84.80
21580;DHT22;10951;59.656;9.666;2023-07-31T10:30:23;20.30;84.90
21580;DHT22;10951;59.656;9.666;2023-07-31T10:32:53;19.80;85.30
21580;DHT22;10951;59.656;9.666;2023-07-31T10:35:21;19.50;86.10
21580;DHT22;10951;59.656;9.666;2023-07-31T10:37:49;19.30;86.50
21580;DHT22;10951;59.656;9.666;2023-07-31T10:40:23;19.20;85.40
21580;DHT22;10951;59.656;9.666;2023-07-31T10:42:56;19.10;86.40
21580;DHT22;10951;59.656;9.666;2023-07-31T10:48:06;18.90;86.00
21580;DHT22;10951;59.656;9.666;2023-07-31T10:50:46;19.00;88.30
21580;DHT22;10951;59.656;9.666;2023-07-31T10:53:27;19.00;87.20
21580;DHT22;10951;59.656;9.666;2023-07-31T10:55:59;19.20;88.80
21580;DHT22;10951;59.656;9.666;2023-07-31T10:58:27;19.30;89.60
21580;DHT22;10951;59.656;9.666;2023-07-31T11:00:59;19.50;88.60
21580;DHT22;10951;59.656;9.666;2023-07-31T11:06:07;19.80;87.90
21580;DHT22;10951;59.656;9.666;2023-07-31T11:08:40;19.80;90.00
21580;DHT22;10951;59.656;9.666;2023-07-31T11:11:09;19.80;90.10
21580;DHT22;10951;59.656;9.666;2023-07-31T11:13:41;19.70;90.50
21580;DHT22;10951;59.656;9.666;2023-07-31T11:16:09;19.60;90.40
21580;DHT22;10951;59.656;9.666;2023-07-31T11:18:39;19.50;90.60
21580;DHT22;10951;59.656;9.666;2023-07-31T11:21:08;19.40;90.60
21580;DHT22;10951;59.656;9.666;2023-07-31T11:23:37;19.30;91.20
21580;DHT22;10951;59.656;9.666;2023-07-31T11:26:06;19.20;90.40
21580;DHT22;10951;59.656;9.666;2023-07-31T11:28:34;19.10;89.80
21580;DHT22;10951;59.656;9.666;2023-07-31T11:31:02;19.00;88.60
21580;DHT22;10951;59.656;9.666;2023-07-31T11:33:29;18.90;88.70
21580;DHT22;10951;59.656;9.666;2023-07-31T11:35:57;18.80;89.00
21580;DHT22;10951;59.656;9.666;2023-07-31T11:38:29;18.70;90.00
21580;DHT22;10951;59.656;9.666;2023-07-31T11:40:59;18.60;90.60
21580;DHT22;10951;59.656;9.666;2023-07-31T11:43:27;18.50;91.20
21580;DHT22;10951;59.656;9.666;2023-07-31T11:45:58;18.50;91.60
21580;DHT22;10951;59.656;9.666;2023-07-31T11:48:27;18.50;91.10
21580;DHT22;10951;59.656;9.666;2023-07-31T11:51:01;18.40;91.60
21580;DHT22;10951;59.656;9.666;2023-07-31T11:56:15;18.40;90.80
21580;DHT22;10951;59.656;9.666;2023-07-31T11:58:53;18.40;90.90
21580;DHT22;10951;59.656;9.666;2023-07-31T12:01:21;18.40;90.60
21580;DHT22;10951;59.656;9.666;2023-07-31T12:03:50;18.50;90.40
21580;DHT22;10951;59.656;9.666;2023-07-31T12:06:17;18.50;90.20
21580;DHT22;10951;59.656;9.666;2023-07-31T12:08:48;18.60;89.60
21580;DHT22;10951;59.656;9.666;2023-07-31T12:11:15;18.70;89.60
21580;DHT22;10951;59.656;9.666;2023-07-31T12:13:44;18.90;90.20
21580;DHT22;10951;59.656;9.666;2023-07-31T12:16:11;19.00;88.60
21580;DHT22;10951;59.656;9.666;2023-07-31T12:18:39;19.20;86.30
21580;DHT22;10951;59.656;9.666;2023-07-31T12:21:08;19.30;85.70
21580;DHT22;10951;59.656;9.666;2023-07-31T12:23:37;19.50;86.70
21580;DHT22;10951;59.656;9.666;2023-07-31T12:28:50;19.70;85.20
21580;DHT22;10951;59.656;9.666;2023-07-31T12:31:22;19.50;87.20
21580;DHT22;10951;59.656;9.666;2023-07-31T12:33:51;19.40;86.60
21580;DHT22;10951;59.656;9.666;2023-07-31T12:36:21;19.40;87.80
21580;DHT22;10951;59.656;9.666;2023-07-31T12:38:49;19.50;86.30
21580;DHT22;10951;59.656;9.666;2023-07-31T12:41:16;19.70;86.80
21580;DHT22;10951;59.656;9.666;2023-07-31T12:43:44;20.00;87.10
21580;DHT22;10951;59.656;9.666;2023-07-31T12:46:11;20.30;83.40
21580;DHT22;10951;59.656;9.666;2023-07-31T12:48:40;20.60;81.70
21580;DHT22;10951;59.656;9.666;2023-07-31T12:51:07;21.00;83.40
21580;DHT22;10951;59.656;9.666;2023-07-31T12:53:35;21.20;79.50
21580;DHT22;10951;59.656;9.666;2023-07-31T12:56:02;21.20;78.10
21580;DHT22;10951;59.656;9.666;2023-07-31T12:58:30;21.40;79.00
21580;DHT22;10951;59.656;9.666;2023-07-31T13:00:57;21.50;74.30
21580;DHT22;10951;59.656;9.666;2023-07-31T13:03:24;21.70;75.20
21580;DHT22;10951;59.656;9.666;2023-07-31T13:05:52;21.90;75.50
21580;DHT22;10951;59.656;9.666;2023-07-31T13:08:20;22.00;74.80
21580;DHT22;10951;59.656;9.666;2023-07-31T13:10:47;22.10;73.70
21580;DHT22;10951;59.656;9.666;2023-07-31T13:13:14;22.00;71.80
21580;DHT22;10951;59.656;9.666;2023-07-31T13:15:41;21.70;72.90
21580;DHT22;10951;59.656;9.666;2023-07-31T13:18:09;21.60;72.90
21580;DHT22;10951;59.656;9.666;2023-07-31T13:20:36;21.50;72.80
21580;DHT22;10951;59.656;9.666;2023-07-31T13:23:03;21.60;73.60
21580;DHT22;10951;59.656;9.666;2023-07-31T13:25:30;21.80;73.10
21580;DHT22;10951;59.656;9.666;2023-07-31T13:27:57;21.80;72.40
21580;DHT22;10951;59.656;9.666;2023-07-31T13:30:27;21.60;66.30
21580;DHT22;10951;59.656;9.666;2023-07-31T13:32:54;21.20;67.70
21580;DHT22;10951;59.656;9.666;2023-07-31T13:35:21;20.90;68.40
21580;DHT22;10951;59.656;9.666;2023-07-31T13:37:48;20.60;71.00
21580;DHT22;10951;59.656;9.666;2023-07-31T13:40:15;20.30;71.00
21580;DHT22;10951;59.656;9.666;2023-07-31T13:42:42;20.20;72.30
21580;DHT22;10951;59.656;9.666;2023-07-31T13:45:09;20.10;74.00
21580;DHT22;10951;59.656;9.666;2023-07-31T13:47:36;20.00;74.10
21580;DHT22;10951;59.656;9.666;2023-07-31T13:50:04;19.80;74.00
21580;DHT22;10951;59.656;9.666;2023-07-31T13:52:31;19.70;75.70
21580;DHT22;10951;59.656;9.666;2023-07-31T13:54:58;19.60;76.30
21580;DHT22;10951;59.656;9.666;2023-07-31T13:57:25;19.60;75.50
21580;DHT22;10951;59.656;9.666;2023-07-31T13:59:53;19.40;74.80
21580;DHT22;10951;59.656;9.666;2023-07-31T14:02:20;19.30;76.20
21580;DHT22;10951;59.656;9.666;2023-07-31T14:04:47;19.20;78.00
21580;DHT22;10951;59.656;9.666;2023-07-31T14:07:13;19.10;77.00
21580;DHT22;10951;59.656;9.666;2023-07-31T14:09:41;19.20;79.30
21580;DHT22;10951;59.656;9.666;2023-07-31T14:12:08;19.10;76.90
21580;DHT22;10951;59.656;9.666;2023-07-31T14:14:35;19.10;76.40
21580;DHT22;10951;59.656;9.666;2023-07-31T14:17:02;19.10;76.40
21580;DHT22;10951;59.656;9.666;2023-07-31T14:19:29;19.10;77.10
21580;DHT22;10951;59.656;9.666;2023-07-31T14:21:58;19.10;78.40
21580;DHT22;10951;59.656;9.666;2023-07-31T14:24:37;19.00;79.00
21580;DHT22;10951;59.656;9.666;2023-07-31T14:27:04;19.10;79.20
21580;DHT22;10951;59.656;9.666;2023-07-31T14:29:31;19.10;79.20
21580;DHT22;10951;59.656;9.666;2023-07-31T14:31:58;19.30;80.20
21580;DHT22;10951;59.656;9.666;2023-07-31T14:34:27;19.60;80.00
21580;DHT22;10951;59.656;9.666;2023-07-31T14:36:54;20.10;80.50
21580;DHT22;10951;59.656;9.666;2023-07-31T14:39:21;20.50;77.80
21580;DHT22;10951;59.656;9.666;2023-07-31T14:41:48;20.90;76.20
21580;DHT22;10951;59.656;9.666;2023-07-31T14:44:15;21.10;75.70
21580;DHT22;10951;59.656;9.666;2023-07-31T14:46:42;21.50;73.50
21580;DHT22;10951;59.656;9.666;2023-07-31T14:49:10;21.70;71.60
21580;DHT22;10951;59.656;9.666;2023-07-31T14:51:37;21.80;71.80
21580;DHT22;10951;59.656;9.666;2023-07-31T14:54:04;21.90;72.00
21580;DHT22;10951;59.656;9.666;2023-07-31T14:56:31;21.90;71.40
21580;DHT22;10951;59.656;9.666;2023-07-31T14:58:58;22.00;69.90
21580;DHT22;10951;59.656;9.666;2023-07-31T15:01:25;22.00;70.90
21580;DHT22;10951;59.656;9.666;2023-07-31T15:03:53;21.90;70.40
21580;DHT22;10951;59.656;9.666;2023-07-31T15:06:20;21.90;70.90
21580;DHT22;10951;59.656;9.666;2023-07-31T15:08:47;21.70;70.70
21580;DHT22;10951;59.656;9.666;2023-07-31T15:11:14;21.50;70.90
21580;DHT22;10951;59.656;9.666;2023-07-31T15:13:43;21.40;71.20
21580;DHT22;10951;59.656;9.666;2023-07-31T15:16:10;21.20;71.00
21580;DHT22;10951;59.656;9.666;2023-07-31T15:18:37;21.00;73.30
21580;DHT22;10951;59.656;9.666;2023-07-31T15:21:05;20.90;72.70
21580;DHT22;10951;59.656;9.666;2023-07-31T15:23:34;20.70;73.20
21580;DHT22;10951;59.656;9.666;2023-07-31T15:26:01;20.60;74.60
21580;DHT22;10951;59.656;9.666;2023-07-31T15:28:28;20.50;73.40
21580;DHT22;10951;59.656;9.666;2023-07-31T15:30:55;20.30;74.20
21580;DHT22;10951;59.656;9.666;2023-07-31T15:33:22;20.20;75.10
21580;DHT22;10951;59.656;9.666;2023-07-31T15:35:49;20.10;74.60
21580;DHT22;10951;59.656;9.666;2023-07-31T15:38:16;20.00;75.30
21580;DHT22;10951;59.656;9.666;2023-07-31T15:40:43;19.90;77.20
21580;DHT22;10951;59.656;9.666;2023-07-31T15:43:10;19.80;76.20
21580;DHT22;10951;59.656;9.666;2023-07-31T15:45:37;19.70;76.60
21580;DHT22;10951;59.656;9.666;2023-07-31T15:48:04;19.60;76.40
21580;DHT22;10951;59.656;9.666;2023-07-31T15:50:32;19.50;77.10
21580;DHT22;10951;59.656;9.666;2023-07-31T15:52:59;19.40;77.50
21580;DHT22;10951;59.656;9.666;2023-07-31T15:55:26;19.40;77.80